Caguas, PR

7:19 AM AST en Octubre 31, 2014 (GMT -0400)
Canabon, Caguas | Change Station
CLOSE
Current Station
Estación meteorológica personal
Location: Caguas, CAGUAS
Altura: 272 ft
Estaciones meteorológicas cercanas

Alt 272 ft 18.24 °N, 66.05 °W | Updated 4 seconds ago

Scattered Clouds
Nubes dispersas
74.8 ° F
Sensación térmica 73 ° F
N
0.0
Viento Variable Viento desde NO
Gusts 0.0 mph

Hoy
Alta -- | Baja -- ° F
--% Posibilidad de precipitaciones
Ayer
Alta -- | Baja -- ° F
Precip. -- pul
6:23 AM 5:52 PM
Cuarto creciente, 54% visible
Presión 29.85 pul
Visibilidad 10.0 Millas
Nubes Baja 3000 ft
Nubes dispersas 6000 ft
Índice de calor 73 ° F
Punto de rocío 73 ° F
Humedad 94%
Precipitaciones 0.00 pul
Espesor de la nieve No disponible.
UV 1.0 de una escala de 12
Polen No disponible.
Calidad del aire No disponible.
Flu Activity No disponible.
METAR TJSJ 311056Z 14005KT 10SM FEW030 SCT060 26/24 A2986 RMK AO2 SLP108 T02610244

More Conditions Fewer Conditions

Presión 29.85 pul
Visibilidad 10.0 Millas
Nubes Baja 3000 ft
Nubes dispersas 6000 ft
Índice de calor 73 ° F
Punto de rocío 73 ° F
Humedad 94%
Precipitaciones 0.00 pul
Espesor de la nieve No disponible.
UV 1.0 de una escala de 12
Polen No disponible.
Calidad del aire No disponible.
Flu Activity No disponible.
METAR TJSJ 311056Z 14005KT 10SM FEW030 SCT060 26/24 A2986 RMK AO2 SLP108 T02610244

More Conditions Fewer Conditions

10-Day Weather Forecast

Almanac

Astronomía

Oct. 31, 2014 Salida Puesta
Hora real
Crepúsculo civil
Crepúsculo náutico
Crepúsculo astronómico
Luna
Horas de luz
Horas de luz
Tomorrow will be .
, % of the Moon is Illuminated

Extremos de hoy

Máximos del estado Bajos del estado

Community

WunderPhotos

Upload Photos

1,766,581 ¡fotos cargadas!

WunderBlogs® & News

Nearby

Calidad del aire

  Calidad del aire Índice AQ Contaminante
Not available.

Grosos de nieve

Estación Profundido Altura

Actividad de terremotos

Ciudad Distance Mag. Tiempo y dato
Magnitud mínima muestra es 2,5.

Temperaturas de aguas costeras

Lugar Temperatura

Estaciones meteorológicas cercanas